sensor_id;sensor_type;location;lat;lon;timestamp;temperature;humidity
7762;DHT22;3925;48.636;9.516;2023-04-01T00:01:19;9.50;99.90
7762;DHT22;3925;48.636;9.516;2023-04-01T00:03:46;9.50;99.90
7762;DHT22;3925;48.636;9.516;2023-04-01T00:06:15;9.50;99.90
7762;DHT22;3925;48.636;9.516;2023-04-01T00:08:42;9.50;99.90
7762;DHT22;3925;48.636;9.516;2023-04-01T00:11:09;9.40;99.90
7762;DHT22;3925;48.636;9.516;2023-04-01T00:13:36;9.40;99.90
7762;DHT22;3925;48.636;9.516;2023-04-01T00:16:06;9.40;99.90
7762;DHT22;3925;48.636;9.516;2023-04-01T00:18:33;9.40;99.90
7762;DHT22;3925;48.636;9.516;2023-04-01T00:21:00;9.40;99.90
7762;DHT22;3925;48.636;9.516;2023-04-01T00:23:27;9.40;99.90
7762;DHT22;3925;48.636;9.516;2023-04-01T00:25:54;9.50;99.90
7762;DHT22;3925;48.636;9.516;2023-04-01T00:28:21;9.50;99.90
7762;DHT22;3925;48.636;9.516;2023-04-01T00:30:48;9.50;99.90
7762;DHT22;3925;48.636;9.516;2023-04-01T00:33:16;9.50;99.90
7762;DHT22;3925;48.636;9.516;2023-04-01T00:35:43;9.40;99.90
7762;DHT22;3925;48.636;9.516;2023-04-01T00:38:10;9.50;99.90
7762;DHT22;3925;48.636;9.516;2023-04-01T00:40:39;9.40;99.90
7762;DHT22;3925;48.636;9.516;2023-04-01T00:43:11;9.40;99.90
7762;DHT22;3925;48.636;9.516;2023-04-01T00:45:40;9.40;99.90
7762;DHT22;3925;48.636;9.516;2023-04-01T00:48:11;9.40;99.90
7762;DHT22;3925;48.636;9.516;2023-04-01T00:50:42;9.40;99.90
7762;DHT22;3925;48.636;9.516;2023-04-01T00:53:10;9.30;99.90
7762;DHT22;3925;48.636;9.516;2023-04-01T00:55:41;9.30;99.90
7762;DHT22;3925;48.636;9.516;2023-04-01T00:58:14;9.40;99.90
7762;DHT22;3925;48.636;9.516;2023-04-01T01:00:44;9.30;99.90
7762;DHT22;3925;48.636;9.516;2023-04-01T01:03:11;9.30;99.90
7762;DHT22;3925;48.636;9.516;2023-04-01T01:05:55;9.30;99.90
7762;DHT22;3925;48.636;9.516;2023-04-01T01:08:31;9.30;99.90
7762;DHT22;3925;48.636;9.516;2023-04-01T01:11:05;9.40;99.90
7762;DHT22;3925;48.636;9.516;2023-04-01T01:13:40;9.40;99.90
7762;DHT22;3925;48.636;9.516;2023-04-01T01:16:13;9.30;99.90
7762;DHT22;3925;48.636;9.516;2023-04-01T01:18:47;9.40;99.90
7762;DHT22;3925;48.636;9.516;2023-04-01T01:24:26;9.20;99.90
7762;DHT22;3925;48.636;9.516;2023-04-01T01:27:02;9.20;99.90
7762;DHT22;3925;48.636;9.516;2023-04-01T01:32:50;9.10;99.90
7762;DHT22;3925;48.636;9.516;2023-04-01T01:35:27;9.20;99.90
7762;DHT22;3925;48.636;9.516;2023-04-01T01:37:59;9.20;99.90
7762;DHT22;3925;48.636;9.516;2023-04-01T01:40:28;9.20;99.90
7762;DHT22;3925;48.636;9.516;2023-04-01T01:43:03;9.10;99.90
7762;DHT22;3925;48.636;9.516;2023-04-01T01:45:33;9.10;99.90
7762;DHT22;3925;48.636;9.516;2023-04-01T01:48:02;9.00;99.90
7762;DHT22;3925;48.636;9.516;2023-04-01T01:50:32;9.00;99.90
7762;DHT22;3925;48.636;9.516;2023-04-01T01:53:03;8.90;99.90
7762;DHT22;3925;48.636;9.516;2023-04-01T01:55:31;9.00;99.90
7762;DHT22;3925;48.636;9.516;2023-04-01T01:58:01;9.00;99.90
7762;DHT22;3925;48.636;9.516;2023-04-01T02:00:29;9.00;99.90
7762;DHT22;3925;48.636;9.516;2023-04-01T02:02:57;9.10;99.90
7762;DHT22;3925;48.636;9.516;2023-04-01T02:05:26;9.00;99.90
7762;DHT22;3925;48.636;9.516;2023-04-01T02:08:01;8.90;99.90
7762;DHT22;3925;48.636;9.516;2023-04-01T02:10:31;9.00;99.90
7762;DHT22;3925;48.636;9.516;2023-04-01T02:13:05;8.90;99.90
7762;DHT22;3925;48.636;9.516;2023-04-01T02:15:39;8.90;99.90
7762;DHT22;3925;48.636;9.516;2023-04-01T02:18:07;8.80;99.90
7762;DHT22;3925;48.636;9.516;2023-04-01T02:20:35;8.80;99.90
7762;DHT22;3925;48.636;9.516;2023-04-01T02:23:05;8.80;99.90
7762;DHT22;3925;48.636;9.516;2023-04-01T02:25:34;8.80;99.90
7762;DHT22;3925;48.636;9.516;2023-04-01T02:28:06;8.80;99.90
7762;DHT22;3925;48.636;9.516;2023-04-01T02:30:37;8.80;99.90
7762;DHT22;3925;48.636;9.516;2023-04-01T02:33:06;8.80;99.90
7762;DHT22;3925;48.636;9.516;2023-04-01T02:35:34;8.80;99.90
7762;DHT22;3925;48.636;9.516;2023-04-01T02:38:02;8.70;99.90
7762;DHT22;3925;48.636;9.516;2023-04-01T02:40:41;8.70;99.90
7762;DHT22;3925;48.636;9.516;2023-04-01T02:43:08;8.70;99.90
7762;DHT22;3925;48.636;9.516;2023-04-01T02:45:35;8.70;99.90
7762;DHT22;3925;48.636;9.516;2023-04-01T02:48:02;8.60;99.90
7762;DHT22;3925;48.636;9.516;2023-04-01T02:50:29;8.60;99.90
7762;DHT22;3925;48.636;9.516;2023-04-01T02:52:56;8.60;99.90
7762;DHT22;3925;48.636;9.516;2023-04-01T02:55:23;8.70;99.90
7762;DHT22;3925;48.636;9.516;2023-04-01T02:57:51;8.70;99.90
7762;DHT22;3925;48.636;9.516;2023-04-01T03:00:18;8.80;99.90
7762;DHT22;3925;48.636;9.516;2023-04-01T03:02:45;8.80;99.90
7762;DHT22;3925;48.636;9.516;2023-04-01T03:05:11;8.80;99.90
7762;DHT22;3925;48.636;9.516;2023-04-01T03:07:38;8.70;99.90
7762;DHT22;3925;48.636;9.516;2023-04-01T03:10:06;8.60;99.90
7762;DHT22;3925;48.636;9.516;2023-04-01T03:12:33;8.50;99.90
7762;DHT22;3925;48.636;9.516;2023-04-01T03:15:02;8.50;99.90
7762;DHT22;3925;48.636;9.516;2023-04-01T03:17:29;8.50;99.90
7762;DHT22;3925;48.636;9.516;2023-04-01T03:19:56;8.40;99.90
7762;DHT22;3925;48.636;9.516;2023-04-01T03:22:23;8.30;99.90
7762;DHT22;3925;48.636;9.516;2023-04-01T03:24:50;8.30;99.90
7762;DHT22;3925;48.636;9.516;2023-04-01T03:27:16;8.20;99.90
7762;DHT22;3925;48.636;9.516;2023-04-01T03:29:43;8.20;99.90
7762;DHT22;3925;48.636;9.516;2023-04-01T03:32:12;8.20;99.90
7762;DHT22;3925;48.636;9.516;2023-04-01T03:34:38;8.10;99.90
7762;DHT22;3925;48.636;9.516;2023-04-01T03:37:05;8.20;99.90
7762;DHT22;3925;48.636;9.516;2023-04-01T03:39:32;8.20;99.90
7762;DHT22;3925;48.636;9.516;2023-04-01T03:41:59;8.20;99.90
7762;DHT22;3925;48.636;9.516;2023-04-01T03:44:26;8.10;99.90
7762;DHT22;3925;48.636;9.516;2023-04-01T03:46:52;8.10;99.90
7762;DHT22;3925;48.636;9.516;2023-04-01T03:49:21;8.10;99.90
7762;DHT22;3925;48.636;9.516;2023-04-01T03:51:47;8.10;99.90
7762;DHT22;3925;48.636;9.516;2023-04-01T03:54:14;8.10;99.90
7762;DHT22;3925;48.636;9.516;2023-04-01T03:56:42;8.10;99.90
7762;DHT22;3925;48.636;9.516;2023-04-01T03:59:09;8.00;99.90
7762;DHT22;3925;48.636;9.516;2023-04-01T04:01:36;8.00;99.90
7762;DHT22;3925;48.636;9.516;2023-04-01T04:04:03;8.00;99.90
7762;DHT22;3925;48.636;9.516;2023-04-01T04:06:32;8.00;99.90
7762;DHT22;3925;48.636;9.516;2023-04-01T04:08:59;8.00;99.90
7762;DHT22;3925;48.636;9.516;2023-04-01T04:11:26;8.00;99.90
7762;DHT22;3925;48.636;9.516;2023-04-01T04:13:53;8.00;99.90
7762;DHT22;3925;48.636;9.516;2023-04-01T04:16:20;7.90;99.90
7762;DHT22;3925;48.636;9.516;2023-04-01T04:18:47;7.90;99.90
7762;DHT22;3925;48.636;9.516;2023-04-01T04:21:14;8.00;99.90
7762;DHT22;3925;48.636;9.516;2023-04-01T04:23:43;7.90;99.90
7762;DHT22;3925;48.636;9.516;2023-04-01T04:26:12;7.90;99.90
7762;DHT22;3925;48.636;9.516;2023-04-01T04:28:39;7.90;99.90
7762;DHT22;3925;48.636;9.516;2023-04-01T04:31:07;8.00;99.90
7762;DHT22;3925;48.636;9.516;2023-04-01T04:33:34;7.90;99.90
7762;DHT22;3925;48.636;9.516;2023-04-01T04:36:03;7.90;99.90
7762;DHT22;3925;48.636;9.516;2023-04-01T04:38:30;8.00;99.90
7762;DHT22;3925;48.636;9.516;2023-04-01T04:40:58;8.00;99.90
7762;DHT22;3925;48.636;9.516;2023-04-01T04:43:25;8.10;99.90
7762;DHT22;3925;48.636;9.516;2023-04-01T04:45:52;8.10;99.90
7762;DHT22;3925;48.636;9.516;2023-04-01T04:48:19;8.20;99.90
7762;DHT22;3925;48.636;9.516;2023-04-01T04:50:46;8.20;99.90
7762;DHT22;3925;48.636;9.516;2023-04-01T04:53:15;8.20;99.90
7762;DHT22;3925;48.636;9.516;2023-04-01T04:55:45;8.20;99.90
7762;DHT22;3925;48.636;9.516;2023-04-01T04:58:13;8.20;99.90
7762;DHT22;3925;48.636;9.516;2023-04-01T05:00:40;8.20;99.90
7762;DHT22;3925;48.636;9.516;2023-04-01T05:03:07;8.30;99.90
7762;DHT22;3925;48.636;9.516;2023-04-01T05:05:35;8.20;99.90
7762;DHT22;3925;48.636;9.516;2023-04-01T05:08:02;8.30;99.90
7762;DHT22;3925;48.636;9.516;2023-04-01T05:10:29;8.30;99.90
7762;DHT22;3925;48.636;9.516;2023-04-01T05:12:57;8.40;99.90
7762;DHT22;3925;48.636;9.516;2023-04-01T05:15:25;8.50;99.90
7762;DHT22;3925;48.636;9.516;2023-04-01T05:17:52;8.60;99.90
7762;DHT22;3925;48.636;9.516;2023-04-01T05:20:19;8.60;99.90
7762;DHT22;3925;48.636;9.516;2023-04-01T05:22:45;8.70;99.90
7762;DHT22;3925;48.636;9.516;2023-04-01T05:25:12;8.70;99.90
7762;DHT22;3925;48.636;9.516;2023-04-01T05:27:40;8.70;99.90
7762;DHT22;3925;48.636;9.516;2023-04-01T05:30:07;8.70;99.90
7762;DHT22;3925;48.636;9.516;2023-04-01T05:32:35;8.80;99.90
7762;DHT22;3925;48.636;9.516;2023-04-01T05:35:03;8.80;99.90
7762;DHT22;3925;48.636;9.516;2023-04-01T05:37:30;8.90;99.90
7762;DHT22;3925;48.636;9.516;2023-04-01T05:39:56;8.90;99.90
7762;DHT22;3925;48.636;9.516;2023-04-01T05:42:24;9.00;99.90
7762;DHT22;3925;48.636;9.516;2023-04-01T05:44:51;9.00;99.90
7762;DHT22;3925;48.636;9.516;2023-04-01T05:47:17;9.00;99.90
7762;DHT22;3925;48.636;9.516;2023-04-01T05:49:46;9.00;99.90
7762;DHT22;3925;48.636;9.516;2023-04-01T05:52:12;9.00;99.90
7762;DHT22;3925;48.636;9.516;2023-04-01T05:54:40;9.10;99.90
7762;DHT22;3925;48.636;9.516;2023-04-01T05:57:06;9.10;99.90
7762;DHT22;3925;48.636;9.516;2023-04-01T05:59:33;9.20;99.90
7762;DHT22;3925;48.636;9.516;2023-04-01T06:02:00;9.30;99.90
7762;DHT22;3925;48.636;9.516;2023-04-01T06:04:31;9.40;99.90
7762;DHT22;3925;48.636;9.516;2023-04-01T06:07:01;9.50;99.90
7762;DHT22;3925;48.636;9.516;2023-04-01T06:09:31;9.50;99.90
7762;DHT22;3925;48.636;9.516;2023-04-01T06:12:16;9.60;99.90
7762;DHT22;3925;48.636;9.516;2023-04-01T06:14:51;9.60;99.90
7762;DHT22;3925;48.636;9.516;2023-04-01T06:17:29;9.70;99.90
7762;DHT22;3925;48.636;9.516;2023-04-01T06:20:04;10.10;99.90
7762;DHT22;3925;48.636;9.516;2023-04-01T06:25:45;10.60;99.90
7762;DHT22;3925;48.636;9.516;2023-04-01T06:28:30;10.70;99.90
7762;DHT22;3925;48.636;9.516;2023-04-01T06:31:05;10.60;99.90
7762;DHT22;3925;48.636;9.516;2023-04-01T06:33:46;10.60;99.90
7762;DHT22;3925;48.636;9.516;2023-04-01T06:36:40;10.40;99.90
7762;DHT22;3925;48.636;9.516;2023-04-01T06:42:30;10.40;99.90
7762;DHT22;3925;48.636;9.516;2023-04-01T06:45:11;10.40;99.90
7762;DHT22;3925;48.636;9.516;2023-04-01T06:47:50;10.60;99.90
7762;DHT22;3925;48.636;9.516;2023-04-01T06:50:26;10.60;99.90
7762;DHT22;3925;48.636;9.516;2023-04-01T06:53:00;10.70;99.90
7762;DHT22;3925;48.636;9.516;2023-04-01T06:55:34;10.80;99.90
7762;DHT22;3925;48.636;9.516;2023-04-01T06:58:05;10.90;99.90
7762;DHT22;3925;48.636;9.516;2023-04-01T07:00:39;11.00;99.90
7762;DHT22;3925;48.636;9.516;2023-04-01T07:03:16;11.00;99.90
7762;DHT22;3925;48.636;9.516;2023-04-01T07:05:45;11.00;99.90
7762;DHT22;3925;48.636;9.516;2023-04-01T07:08:16;11.00;99.90
7762;DHT22;3925;48.636;9.516;2023-04-01T07:10:47;10.80;99.90
7762;DHT22;3925;48.636;9.516;2023-04-01T07:13:20;10.90;99.90
7762;DHT22;3925;48.636;9.516;2023-04-01T07:15:56;10.60;99.90
7762;DHT22;3925;48.636;9.516;2023-04-01T07:18:30;10.40;99.90
7762;DHT22;3925;48.636;9.516;2023-04-01T07:21:01;10.50;99.90
7762;DHT22;3925;48.636;9.516;2023-04-01T07:23:31;10.40;99.90
7762;DHT22;3925;48.636;9.516;2023-04-01T07:26:01;10.40;99.90
7762;DHT22;3925;48.636;9.516;2023-04-01T07:28:32;10.40;99.90
7762;DHT22;3925;48.636;9.516;2023-04-01T07:31:07;10.40;99.90
7762;DHT22;3925;48.636;9.516;2023-04-01T07:33:41;10.40;99.90
7762;DHT22;3925;48.636;9.516;2023-04-01T07:36:13;10.40;99.90
7762;DHT22;3925;48.636;9.516;2023-04-01T07:38:52;10.40;99.90
7762;DHT22;3925;48.636;9.516;2023-04-01T07:41:29;10.40;99.90
7762;DHT22;3925;48.636;9.516;2023-04-01T07:44:07;10.40;99.90
7762;DHT22;3925;48.636;9.516;2023-04-01T07:46:49;10.40;99.90
7762;DHT22;3925;48.636;9.516;2023-04-01T07:49:23;10.40;99.90
7762;DHT22;3925;48.636;9.516;2023-04-01T07:51:58;10.50;99.90
7762;DHT22;3925;48.636;9.516;2023-04-01T07:54:32;10.50;99.90
7762;DHT22;3925;48.636;9.516;2023-04-01T07:57:05;10.60;99.90
7762;DHT22;3925;48.636;9.516;2023-04-01T07:59:37;10.60;99.90
7762;DHT22;3925;48.636;9.516;2023-04-01T08:02:19;10.60;99.90
7762;DHT22;3925;48.636;9.516;2023-04-01T08:04:56;10.60;99.90
7762;DHT22;3925;48.636;9.516;2023-04-01T08:07:29;10.50;99.90
7762;DHT22;3925;48.636;9.516;2023-04-01T08:10:04;10.60;99.90
7762;DHT22;3925;48.636;9.516;2023-04-01T08:12:45;10.60;99.90
7762;DHT22;3925;48.636;9.516;2023-04-01T08:15:20;10.50;99.90
7762;DHT22;3925;48.636;9.516;2023-04-01T08:18:03;10.60;99.90
7762;DHT22;3925;48.636;9.516;2023-04-01T08:20:37;10.70;99.90
7762;DHT22;3925;48.636;9.516;2023-04-01T08:23:10;10.70;99.90
7762;DHT22;3925;48.636;9.516;2023-04-01T08:25:40;10.70;99.90
7762;DHT22;3925;48.636;9.516;2023-04-01T08:28:16;10.70;99.90
7762;DHT22;3925;48.636;9.516;2023-04-01T08:30:47;10.70;99.90
7762;DHT22;3925;48.636;9.516;2023-04-01T08:33:18;10.70;99.90
7762;DHT22;3925;48.636;9.516;2023-04-01T08:35:49;10.70;99.90
7762;DHT22;3925;48.636;9.516;2023-04-01T08:38:21;10.70;99.90
7762;DHT22;3925;48.636;9.516;2023-04-01T08:41:00;10.60;99.90
7762;DHT22;3925;48.636;9.516;2023-04-01T08:43:48;10.60;99.90
7762;DHT22;3925;48.636;9.516;2023-04-01T08:49:38;10.70;99.90
7762;DHT22;3925;48.636;9.516;2023-04-01T08:52:35;10.70;99.90
7762;DHT22;3925;48.636;9.516;2023-04-01T08:55:26;10.80;99.90
7762;DHT22;3925;48.636;9.516;2023-04-01T08:58:19;10.80;99.90
7762;DHT22;3925;48.636;9.516;2023-04-01T09:00:53;10.90;99.90
7762;DHT22;3925;48.636;9.516;2023-04-01T09:03:42;10.80;99.90
7762;DHT22;3925;48.636;9.516;2023-04-01T09:06:29;10.90;99.90
7762;DHT22;3925;48.636;9.516;2023-04-01T09:09:22;11.00;99.90
7762;DHT22;3925;48.636;9.516;2023-04-01T09:12:24;11.00;99.90
7762;DHT22;3925;48.636;9.516;2023-04-01T09:15:16;11.10;99.90
7762;DHT22;3925;48.636;9.516;2023-04-01T09:18:13;10.90;99.90
7762;DHT22;3925;48.636;9.516;2023-04-01T09:21:04;10.80;99.90
7762;DHT22;3925;48.636;9.516;2023-04-01T09:26:39;10.40;99.90
7762;DHT22;3925;48.636;9.516;2023-04-01T09:29:18;10.30;99.90
7762;DHT22;3925;48.636;9.516;2023-04-01T09:32:05;10.20;99.90
7762;DHT22;3925;48.636;9.516;2023-04-01T09:34:51;10.20;99.90
7762;DHT22;3925;48.636;9.516;2023-04-01T09:37:20;10.20;99.90
7762;DHT22;3925;48.636;9.516;2023-04-01T09:40:01;10.10;99.90
7762;DHT22;3925;48.636;9.516;2023-04-01T09:42:44;10.30;99.90
7762;DHT22;3925;48.636;9.516;2023-04-01T09:45:25;10.40;99.90
7762;DHT22;3925;48.636;9.516;2023-04-01T09:48:03;10.40;99.90
7762;DHT22;3925;48.636;9.516;2023-04-01T09:50:42;10.70;99.90
7762;DHT22;3925;48.636;9.516;2023-04-01T09:53:22;10.80;99.90
7762;DHT22;3925;48.636;9.516;2023-04-01T10:14:13;10.80;99.90
7762;DHT22;3925;48.636;9.516;2023-04-01T10:17:16;10.70;99.90
7762;DHT22;3925;48.636;9.516;2023-04-01T10:20:18;10.60;99.90
7762;DHT22;3925;48.636;9.516;2023-04-01T10:29:10;10.30;99.90
7762;DHT22;3925;48.636;9.516;2023-04-01T10:35:19;10.30;99.90
7762;DHT22;3925;48.636;9.516;2023-04-01T10:41:03;10.20;99.90
7762;DHT22;3925;48.636;9.516;2023-04-01T10:44:20;10.10;99.90
7762;DHT22;3925;48.636;9.516;2023-04-01T10:47:25;10.10;99.90
7762;DHT22;3925;48.636;9.516;2023-04-01T10:50:17;10.20;99.90
7762;DHT22;3925;48.636;9.516;2023-04-01T10:56:35;10.30;99.90
7762;DHT22;3925;48.636;9.516;2023-04-01T10:59:45;10.40;99.90
7762;DHT22;3925;48.636;9.516;2023-04-01T11:08:54;10.50;99.90
7762;DHT22;3925;48.636;9.516;2023-04-01T11:15:17;10.90;99.90
7762;DHT22;3925;48.636;9.516;2023-04-01T11:27:47;12.30;99.90
7762;DHT22;3925;48.636;9.516;2023-04-01T11:30:26;12.20;99.90
7762;DHT22;3925;48.636;9.516;2023-04-01T11:33:01;12.10;99.90
7762;DHT22;3925;48.636;9.516;2023-04-01T11:35:57;12.40;99.90
7762;DHT22;3925;48.636;9.516;2023-04-01T11:38:57;12.70;99.90
7762;DHT22;3925;48.636;9.516;2023-04-01T11:41:33;12.80;99.90
7762;DHT22;3925;48.636;9.516;2023-04-01T11:44:15;12.80;99.90
7762;DHT22;3925;48.636;9.516;2023-04-01T11:46:53;12.80;99.90
7762;DHT22;3925;48.636;9.516;2023-04-01T11:49:50;12.80;99.90
7762;DHT22;3925;48.636;9.516;2023-04-01T11:52:26;12.50;99.90
7762;DHT22;3925;48.636;9.516;2023-04-01T11:55:10;12.50;99.90
7762;DHT22;3925;48.636;9.516;2023-04-01T11:58:07;12.10;99.90
7762;DHT22;3925;48.636;9.516;2023-04-01T12:01:10;12.20;99.90
7762;DHT22;3925;48.636;9.516;2023-04-01T12:04:06;12.30;99.90
7762;DHT22;3925;48.636;9.516;2023-04-01T12:06:41;12.10;99.90
7762;DHT22;3925;48.636;9.516;2023-04-01T12:09:15;12.10;99.90
7762;DHT22;3925;48.636;9.516;2023-04-01T12:11:51;12.10;99.90
7762;DHT22;3925;48.636;9.516;2023-04-01T12:14:30;12.40;99.90
7762;DHT22;3925;48.636;9.516;2023-04-01T12:17:08;12.50;99.90
7762;DHT22;3925;48.636;9.516;2023-04-01T12:19:45;12.50;99.90
7762;DHT22;3925;48.636;9.516;2023-04-01T12:22:37;12.60;99.90
7762;DHT22;3925;48.636;9.516;2023-04-01T12:25:21;12.50;99.90
7762;DHT22;3925;48.636;9.516;2023-04-01T12:28:03;12.40;99.90
7762;DHT22;3925;48.636;9.516;2023-04-01T12:30:42;12.30;99.90
7762;DHT22;3925;48.636;9.516;2023-04-01T12:33:31;12.30;99.90
7762;DHT22;3925;48.636;9.516;2023-04-01T12:36:11;12.20;99.90
7762;DHT22;3925;48.636;9.516;2023-04-01T12:38:51;12.00;99.90
7762;DHT22;3925;48.636;9.516;2023-04-01T12:41:29;11.80;99.90
7762;DHT22;3925;48.636;9.516;2023-04-01T12:44:20;11.60;99.90
7762;DHT22;3925;48.636;9.516;2023-04-01T12:47:09;11.70;99.90
7762;DHT22;3925;48.636;9.516;2023-04-01T12:50:26;11.60;99.90
7762;DHT22;3925;48.636;9.516;2023-04-01T12:53:18;11.80;99.90
7762;DHT22;3925;48.636;9.516;2023-04-01T12:55:50;11.80;99.90
7762;DHT22;3925;48.636;9.516;2023-04-01T12:58:46;11.80;99.90
7762;DHT22;3925;48.636;9.516;2023-04-01T13:01:30;11.70;99.90
7762;DHT22;3925;48.636;9.516;2023-04-01T13:04:29;11.60;99.90
7762;DHT22;3925;48.636;9.516;2023-04-01T13:07:16;11.70;99.90
7762;DHT22;3925;48.636;9.516;2023-04-01T13:09:54;11.40;99.90
7762;DHT22;3925;48.636;9.516;2023-04-01T13:12:39;11.40;99.90
7762;DHT22;3925;48.636;9.516;2023-04-01T13:15:26;11.40;99.90
7762;DHT22;3925;48.636;9.516;2023-04-01T13:18:01;11.50;99.90
7762;DHT22;3925;48.636;9.516;2023-04-01T13:20:40;11.60;99.90
7762;DHT22;3925;48.636;9.516;2023-04-01T13:23:19;11.80;99.90
7762;DHT22;3925;48.636;9.516;2023-04-01T13:25:58;11.70;99.90
7762;DHT22;3925;48.636;9.516;2023-04-01T13:28:29;11.70;99.90
7762;DHT22;3925;48.636;9.516;2023-04-01T13:31:03;11.70;99.90
7762;DHT22;3925;48.636;9.516;2023-04-01T13:33:38;11.80;99.90
7762;DHT22;3925;48.636;9.516;2023-04-01T13:36:16;11.70;99.90
7762;DHT22;3925;48.636;9.516;2023-04-01T13:39:01;11.70;99.90
7762;DHT22;3925;48.636;9.516;2023-04-01T13:41:49;11.80;99.90
7762;DHT22;3925;48.636;9.516;2023-04-01T13:44:24;12.10;99.90
7762;DHT22;3925;48.636;9.516;2023-04-01T13:56:08;12.00;99.90
7762;DHT22;3925;48.636;9.516;2023-04-01T13:58:53;12.30;99.90
7762;DHT22;3925;48.636;9.516;2023-04-01T14:01:29;12.20;99.90
7762;DHT22;3925;48.636;9.516;2023-04-01T14:04:20;12.40;99.90
7762;DHT22;3925;48.636;9.516;2023-04-01T14:07:04;12.70;99.90
7762;DHT22;3925;48.636;9.516;2023-04-01T14:09:54;12.60;99.90
7762;DHT22;3925;48.636;9.516;2023-04-01T14:12:31;12.40;99.90
7762;DHT22;3925;48.636;9.516;2023-04-01T14:15:25;12.60;99.90
7762;DHT22;3925;48.636;9.516;2023-04-01T14:20:51;12.50;99.90
7762;DHT22;3925;48.636;9.516;2023-04-01T14:23:42;12.40;99.90
7762;DHT22;3925;48.636;9.516;2023-04-01T14:26:22;12.50;99.90
7762;DHT22;3925;48.636;9.516;2023-04-01T14:29:00;12.50;99.90
7762;DHT22;3925;48.636;9.516;2023-04-01T14:31:44;12.40;99.90
7762;DHT22;3925;48.636;9.516;2023-04-01T14:34:25;12.30;99.90
7762;DHT22;3925;48.636;9.516;2023-04-01T14:37:05;12.30;99.90
7762;DHT22;3925;48.636;9.516;2023-04-01T14:42:45;12.00;99.90
7762;DHT22;3925;48.636;9.516;2023-04-01T14:48:37;11.90;99.90
7762;DHT22;3925;48.636;9.516;2023-04-01T14:51:13;11.90;99.90
7762;DHT22;3925;48.636;9.516;2023-04-01T14:53:44;11.90;99.90
7762;DHT22;3925;48.636;9.516;2023-04-01T14:56:36;11.90;99.90
7762;DHT22;3925;48.636;9.516;2023-04-01T14:59:08;11.90;99.90
7762;DHT22;3925;48.636;9.516;2023-04-01T15:01:40;11.90;99.90
7762;DHT22;3925;48.636;9.516;2023-04-01T15:07:21;11.60;99.90
7762;DHT22;3925;48.636;9.516;2023-04-01T15:09:59;11.60;99.90
7762;DHT22;3925;48.636;9.516;2023-04-01T15:12:32;11.60;99.90
7762;DHT22;3925;48.636;9.516;2023-04-01T15:15:27;11.50;99.90
7762;DHT22;3925;48.636;9.516;2023-04-01T15:18:07;11.60;99.90
7762;DHT22;3925;48.636;9.516;2023-04-01T15:20:59;11.60;99.90
7762;DHT22;3925;48.636;9.516;2023-04-01T15:23:36;11.60;99.90
7762;DHT22;3925;48.636;9.516;2023-04-01T15:26:39;11.50;99.90
7762;DHT22;3925;48.636;9.516;2023-04-01T15:29:37;11.60;99.90
7762;DHT22;3925;48.636;9.516;2023-04-01T15:32:17;11.40;99.90
7762;DHT22;3925;48.636;9.516;2023-04-01T15:34:52;11.40;99.90
7762;DHT22;3925;48.636;9.516;2023-04-01T15:37:32;11.40;99.90
7762;DHT22;3925;48.636;9.516;2023-04-01T15:40:14;11.30;99.90
7762;DHT22;3925;48.636;9.516;2023-04-01T15:42:54;11.30;99.90
7762;DHT22;3925;48.636;9.516;2023-04-01T15:45:32;11.20;99.90
7762;DHT22;3925;48.636;9.516;2023-04-01T15:48:13;11.20;99.90
7762;DHT22;3925;48.636;9.516;2023-04-01T15:50:57;11.20;99.90
7762;DHT22;3925;48.636;9.516;2023-04-01T15:58:52;11.20;99.90
7762;DHT22;3925;48.636;9.516;2023-04-01T16:01:28;11.10;99.90
7762;DHT22;3925;48.636;9.516;2023-04-01T16:04:11;11.10;99.90
7762;DHT22;3925;48.636;9.516;2023-04-01T16:07:07;11.00;99.90
7762;DHT22;3925;48.636;9.516;2023-04-01T16:09:53;11.00;99.90
7762;DHT22;3925;48.636;9.516;2023-04-01T16:12:34;11.00;99.90
7762;DHT22;3925;48.636;9.516;2023-04-01T16:15:14;11.00;99.90
7762;DHT22;3925;48.636;9.516;2023-04-01T16:18:09;11.00;99.90
7762;DHT22;3925;48.636;9.516;2023-04-01T16:20:46;10.90;99.90
7762;DHT22;3925;48.636;9.516;2023-04-01T16:23:22;10.90;99.90
7762;DHT22;3925;48.636;9.516;2023-04-01T16:26:01;10.80;99.90
7762;DHT22;3925;48.636;9.516;2023-04-01T16:28:31;10.90;99.90
7762;DHT22;3925;48.636;9.516;2023-04-01T16:31:05;10.90;99.90
7762;DHT22;3925;48.636;9.516;2023-04-01T16:33:40;10.90;99.90
7762;DHT22;3925;48.636;9.516;2023-04-01T16:36:13;10.80;99.90
7762;DHT22;3925;48.636;9.516;2023-04-01T16:38:52;10.80;99.90
7762;DHT22;3925;48.636;9.516;2023-04-01T16:41:24;10.80;99.90
7762;DHT22;3925;48.636;9.516;2023-04-01T16:43:55;10.70;99.90
7762;DHT22;3925;48.636;9.516;2023-04-01T16:46:31;10.80;99.90
7762;DHT22;3925;48.636;9.516;2023-04-01T16:49:01;10.80;99.90
7762;DHT22;3925;48.636;9.516;2023-04-01T16:51:37;10.80;99.90
7762;DHT22;3925;48.636;9.516;2023-04-01T16:54:16;10.80;99.90
7762;DHT22;3925;48.636;9.516;2023-04-01T16:56:50;10.80;99.90
7762;DHT22;3925;48.636;9.516;2023-04-01T16:59:22;10.70;99.90
7762;DHT22;3925;48.636;9.516;2023-04-01T17:01:53;10.70;99.90
7762;DHT22;3925;48.636;9.516;2023-04-01T17:04:30;10.70;99.90
7762;DHT22;3925;48.636;9.516;2023-04-01T17:07:06;10.70;99.90
7762;DHT22;3925;48.636;9.516;2023-04-01T17:09:51;10.70;99.90
7762;DHT22;3925;48.636;9.516;2023-04-01T17:12:26;10.70;99.90
7762;DHT22;3925;48.636;9.516;2023-04-01T17:14:59;10.70;99.90
7762;DHT22;3925;48.636;9.516;2023-04-01T17:17:34;10.70;99.90
7762;DHT22;3925;48.636;9.516;2023-04-01T17:20:26;10.70;99.90
7762;DHT22;3925;48.636;9.516;2023-04-01T17:23:01;10.70;99.90
7762;DHT22;3925;48.636;9.516;2023-04-01T17:25:41;10.80;99.90
7762;DHT22;3925;48.636;9.516;2023-04-01T17:28:26;10.70;99.90
7762;DHT22;3925;48.636;9.516;2023-04-01T17:31:02;10.60;99.90
7762;DHT22;3925;48.636;9.516;2023-04-01T17:33:40;10.60;99.90
7762;DHT22;3925;48.636;9.516;2023-04-01T17:36:16;10.70;99.90
7762;DHT22;3925;48.636;9.516;2023-04-01T17:38:57;10.70;99.90
7762;DHT22;3925;48.636;9.516;2023-04-01T17:41:35;10.60;99.90
7762;DHT22;3925;48.636;9.516;2023-04-01T17:44:16;10.60;99.90
7762;DHT22;3925;48.636;9.516;2023-04-01T17:47:00;10.60;99.90
7762;DHT22;3925;48.636;9.516;2023-04-01T17:49:35;10.60;99.90
7762;DHT22;3925;48.636;9.516;2023-04-01T17:52:09;10.60;99.90
7762;DHT22;3925;48.636;9.516;2023-04-01T17:54:47;10.60;99.90
7762;DHT22;3925;48.636;9.516;2023-04-01T17:57:33;10.60;99.90
7762;DHT22;3925;48.636;9.516;2023-04-01T18:00:17;10.60;99.90
7762;DHT22;3925;48.636;9.516;2023-04-01T18:02:54;10.60;99.90
7762;DHT22;3925;48.636;9.516;2023-04-01T18:05:51;10.60;99.90
7762;DHT22;3925;48.636;9.516;2023-04-01T18:08:33;10.70;99.90
7762;DHT22;3925;48.636;9.516;2023-04-01T18:11:12;10.60;99.90
7762;DHT22;3925;48.636;9.516;2023-04-01T18:14:00;10.60;99.90
7762;DHT22;3925;48.636;9.516;2023-04-01T18:16:43;10.60;99.90
7762;DHT22;3925;48.636;9.516;2023-04-01T18:19:20;10.60;99.90
7762;DHT22;3925;48.636;9.516;2023-04-01T18:21:51;10.50;99.90
7762;DHT22;3925;48.636;9.516;2023-04-01T18:24:24;10.50;99.90
7762;DHT22;3925;48.636;9.516;2023-04-01T18:27:03;10.50;99.90
7762;DHT22;3925;48.636;9.516;2023-04-01T18:29:40;10.50;99.90
7762;DHT22;3925;48.636;9.516;2023-04-01T18:32:17;10.50;99.90
7762;DHT22;3925;48.636;9.516;2023-04-01T18:34:55;10.40;99.90
7762;DHT22;3925;48.636;9.516;2023-04-01T18:37:28;10.50;99.90
7762;DHT22;3925;48.636;9.516;2023-04-01T18:40:02;10.50;99.90
7762;DHT22;3925;48.636;9.516;2023-04-01T18:42:43;10.40;99.90
7762;DHT22;3925;48.636;9.516;2023-04-01T18:45:19;10.40;99.90